createdAt,value
2018-04-20T00:00:21.060Z,300.73
2018-04-20T00:01:25.164Z,282.62
2018-04-20T00:02:29.279Z,278.42
2018-04-20T00:03:34.181Z,276.30
2018-04-20T00:04:38.280Z,281.33
2018-04-20T00:05:42.518Z,300.50
2018-04-20T00:06:46.663Z,288.40
2018-04-20T00:07:50.792Z,352.45
2018-04-20T00:08:55.016Z,351.25
2018-04-20T00:10:00.220Z,364.12
2018-04-20T00:11:04.497Z,353.52
2018-04-20T00:12:09.575Z,353.62
2018-04-20T00:13:14.336Z,324.70
2018-04-20T00:14:18.600Z,344.50
2018-04-20T00:15:23.683Z,308.90
2018-04-20T00:16:28.256Z,300.00
2018-04-20T00:17:33.328Z,313.17
2018-04-20T00:18:37.593Z,312.65
2018-04-20T00:19:41.896Z,318.48
2018-04-20T00:20:46.988Z,327.23
2018-04-20T00:21:51.344Z,318.55
2018-04-20T00:22:55.680Z,330.35
2018-04-20T00:24:00.053Z,326.00
2018-04-20T00:25:04.435Z,314.10
2018-04-20T00:26:10.150Z,312.40
2018-04-20T00:27:15.106Z,301.48
2018-04-20T00:28:20.157Z,302.87
2018-04-20T00:29:24.443Z,304.90
2018-04-20T00:30:29.392Z,291.00
2018-04-20T00:31:33.485Z,324.15
2018-04-20T00:32:37.588Z,297.98
2018-04-20T00:33:42.132Z,297.85
2018-04-20T00:34:46.492Z,305.55
2018-04-20T00:35:50.768Z,321.20
2018-04-20T00:36:55.027Z,326.50
2018-04-20T00:37:59.292Z,338.23
2018-04-20T00:39:03.583Z,316.77
2018-04-20T00:40:07.873Z,302.20
2018-04-20T00:41:12.969Z,292.75
2018-04-20T00:42:17.221Z,285.92
2018-04-20T00:43:21.497Z,280.55
2018-04-20T00:44:25.667Z,273.23
2018-04-20T00:45:30.056Z,282.77
2018-04-20T00:46:34.928Z,274.98
2018-04-20T00:47:39.065Z,270.45
2018-04-20T00:48:43.192Z,266.73
2018-04-20T00:49:48.035Z,268.23
2018-04-20T00:50:52.134Z,263.95
2018-04-20T00:51:56.233Z,266.42
2018-04-20T00:53:00.712Z,259.75
2018-04-20T00:54:26.866Z,261.70
2018-04-20T00:55:31.133Z,239.95
2018-04-20T00:56:35.400Z,250.70
2018-04-20T00:57:39.974Z,240.23
2018-04-20T00:58:44.880Z,239.40
2018-04-20T00:59:49.020Z,236.30
2018-04-20T01:00:53.897Z,240.30
2018-04-20T01:01:58.020Z,235.23
2018-04-20T01:03:02.692Z,234.90
2018-04-20T01:04:07.556Z,227.52
2018-04-20T01:05:12.727Z,234.37
2018-04-20T01:06:16.889Z,227.68
2018-04-20T01:07:21.752Z,224.18
2018-04-20T01:08:25.916Z,223.10
2018-04-20T01:09:30.815Z,219.70
2018-04-20T01:10:34.939Z,220.90
2018-04-20T01:11:39.871Z,212.93
2018-04-20T01:12:43.968Z,210.57
2018-04-20T01:13:48.230Z,199.27
2018-04-20T01:14:52.943Z,203.65
2018-04-20T01:15:57.191Z,194.85
2018-04-20T01:17:02.240Z,193.27
2018-04-20T01:18:06.357Z,195.02
2018-04-20T01:19:11.348Z,188.93
2018-04-20T01:20:16.381Z,182.37
2018-04-20T01:21:20.728Z,179.93
2018-04-20T01:22:24.984Z,171.68
2018-04-20T01:23:29.651Z,166.90
2018-04-20T01:24:34.363Z,157.20
2018-04-20T01:25:38.606Z,158.87
2018-04-20T01:26:43.707Z,156.55
2018-04-20T01:27:48.024Z,155.60
2018-04-20T01:28:53.050Z,154.65
2018-04-20T01:29:59.040Z,154.98
2018-04-20T01:31:03.311Z,152.68
2018-04-20T01:32:07.862Z,144.30
2018-04-20T01:33:12.880Z,140.98
2018-04-20T01:34:17.152Z,144.65
2018-04-20T01:35:21.444Z,134.63
2018-04-20T01:36:25.714Z,139.43
2018-04-20T01:37:30.029Z,132.93
2018-04-20T01:38:34.254Z,125.95
2018-04-20T01:39:38.461Z,128.93
2018-04-20T01:40:42.667Z,125.45
2018-04-20T01:41:46.881Z,126.68
2018-04-20T01:42:51.085Z,122.95
2018-04-20T01:43:55.638Z,129.77
2018-04-20T01:44:59.921Z,128.20
2018-04-20T01:46:05.113Z,141.10
2018-04-20T01:47:10.096Z,161.88
2018-04-20T01:48:14.167Z,144.40
2018-04-20T01:49:19.078Z,134.77
2018-04-20T01:50:23.132Z,142.32
2018-04-20T01:51:27.222Z,152.75
2018-04-20T01:52:31.274Z,167.20
2018-04-20T01:53:35.558Z,146.80
2018-04-20T01:54:39.602Z,156.63
2018-04-20T01:55:43.961Z,156.40
2018-04-20T01:56:48.171Z,156.20
2018-04-20T01:57:52.393Z,164.05
2018-04-20T01:58:56.610Z,175.93
2018-04-20T02:00:00.808Z,165.77
2018-04-20T02:01:05.506Z,150.62
2018-04-20T02:02:11.181Z,164.40
2018-04-20T02:03:15.413Z,160.07
2018-04-20T02:04:19.635Z,153.10
2018-04-20T02:05:23.818Z,161.75
2018-04-20T02:06:28.790Z,185.48
2018-04-20T02:07:33.329Z,186.52
2018-04-20T02:08:37.551Z,179.73
2018-04-20T02:09:42.532Z,183.35
2018-04-20T02:10:46.740Z,193.90
2018-04-20T02:11:51.011Z,189.10
2018-04-20T02:12:55.220Z,191.57
2018-04-20T02:13:59.428Z,191.27
2018-04-20T02:15:03.702Z,190.62
2018-04-20T02:16:09.504Z,166.45
2018-04-20T02:17:14.092Z,166.43
2018-04-20T02:18:18.606Z,165.70
2018-04-20T02:19:22.849Z,152.85
2018-04-20T02:20:27.586Z,145.77
2018-04-20T02:21:33.121Z,138.00
2018-04-20T02:22:37.366Z,138.93
2018-04-20T02:23:41.588Z,127.82
2018-04-20T02:24:45.706Z,127.30
2018-04-20T02:25:49.786Z,128.50
2018-04-20T02:26:53.881Z,130.25
2018-04-20T02:27:57.922Z,125.93
2018-04-20T02:29:02.003Z,120.07
2018-04-20T02:30:06.038Z,120.03
2018-04-20T02:31:10.370Z,105.03
2018-04-20T02:32:15.324Z,114.47
2018-04-20T02:33:19.842Z,108.03
2018-04-20T02:34:24.067Z,108.55
2018-04-20T02:35:28.271Z,103.68
2018-04-20T02:36:32.720Z,98.82
2018-04-20T02:37:37.771Z,98.50
2018-04-20T02:38:41.951Z,96.80
2018-04-20T02:39:46.943Z,96.57
2018-04-20T02:40:51.151Z,93.07
2018-04-20T02:41:55.351Z,92.82
2018-04-20T02:42:59.597Z,95.57
2018-04-20T02:44:04.433Z,85.62
2018-04-20T02:45:08.462Z,90.78
2018-04-20T02:46:12.856Z,84.87
2018-04-20T02:47:16.917Z,85.50
2018-04-20T02:48:21.750Z,86.07
2018-04-20T02:49:25.784Z,80.82
2018-04-20T02:50:29.818Z,81.75
2018-04-20T02:51:33.864Z,81.43
2018-04-20T02:52:37.950Z,81.43
2018-04-20T02:53:42.754Z,77.20
2018-04-20T02:54:47.448Z,74.95
2018-04-20T02:55:51.613Z,76.30
2018-04-20T02:56:56.253Z,73.03
2018-04-20T02:58:01.053Z,69.80
2018-04-20T02:59:05.073Z,66.97
2018-04-20T03:00:09.682Z,69.20
2018-04-20T03:01:13.877Z,70.57
2018-04-20T03:02:18.216Z,68.50
2018-04-20T03:03:22.385Z,65.85
2018-04-20T03:04:26.578Z,64.60
2018-04-20T03:05:30.810Z,64.30
2018-04-20T03:06:35.086Z,62.92
2018-04-20T03:07:39.328Z,62.60
2018-04-20T03:08:43.629Z,59.40
2018-04-20T03:09:47.835Z,59.42
2018-04-20T03:10:52.052Z,61.53
2018-04-20T03:11:56.266Z,58.80
2018-04-20T03:13:00.590Z,55.65
2018-04-20T03:14:05.366Z,55.12
2018-04-20T03:15:09.545Z,55.95
2018-04-20T03:16:13.581Z,52.85
2018-04-20T03:17:17.698Z,55.25
2018-04-20T03:18:21.749Z,54.03
2018-04-20T03:19:25.774Z,50.47
2018-04-20T03:20:29.835Z,50.12
2018-04-20T03:21:34.801Z,53.75
2018-04-20T03:22:38.924Z,51.40
2018-04-20T03:23:43.029Z,48.50
2018-04-20T03:24:47.043Z,48.67
2018-04-20T03:25:51.113Z,46.72
2018-04-20T03:26:55.157Z,47.00
2018-04-20T03:27:59.958Z,47.05
2018-04-20T03:29:04.078Z,44.42
2018-04-20T03:30:08.908Z,44.00
2018-04-20T03:31:13.301Z,44.63
2018-04-20T03:32:18.461Z,43.83
2018-04-20T03:33:22.686Z,43.20
2018-04-20T03:34:26.907Z,41.47
2018-04-20T03:35:31.126Z,45.60
2018-04-20T03:36:35.319Z,72.87
2018-04-20T03:37:39.524Z,108.85
2018-04-20T03:38:43.730Z,222.43
2018-04-20T03:39:47.954Z,186.98
2018-04-20T03:40:51.974Z,115.22
2018-04-20T03:41:56.773Z,96.12
2018-04-20T03:43:00.996Z,98.40
2018-04-20T03:44:05.791Z,94.45
2018-04-20T03:45:09.909Z,80.12
2018-04-20T03:46:14.695Z,73.82
2018-04-20T03:47:18.694Z,79.40
2018-04-20T03:48:22.938Z,73.45
2018-04-20T03:49:27.900Z,71.68
2018-04-20T03:50:32.178Z,69.30
2018-04-20T03:51:36.967Z,97.97
2018-04-20T03:52:41.018Z,75.55
2018-04-20T03:53:45.063Z,180.43
2018-04-20T03:54:49.127Z,169.05
2018-04-20T03:55:53.182Z,199.80
2018-04-20T03:56:57.223Z,151.82
2018-04-20T03:58:01.257Z,203.50
2018-04-20T03:59:43.953Z,160.98
2018-04-20T04:00:49.223Z,124.82
2018-04-20T04:01:54.170Z,122.75
2018-04-20T04:02:58.981Z,113.50
2018-04-20T04:04:03.068Z,107.32
2018-04-20T04:05:07.868Z,110.45
2018-04-20T04:06:11.910Z,106.32
2018-04-20T04:07:16.123Z,102.45
2018-04-20T04:08:20.338Z,99.43
2018-04-20T04:09:24.551Z,95.65
2018-04-20T04:10:29.399Z,91.00
2018-04-20T04:11:33.766Z,94.60
2018-04-20T04:12:38.590Z,81.72
2018-04-20T04:13:43.049Z,88.68
2018-04-20T04:14:47.083Z,79.00
2018-04-20T04:15:51.509Z,79.25
2018-04-20T04:17:06.711Z,85.03
2018-04-20T04:18:21.713Z,77.75
2018-04-20T04:20:10.578Z,77.28
2018-04-20T04:21:23.523Z,79.53
2018-04-20T04:24:42.839Z,77.20
2018-04-20T04:28:03.460Z,70.35
2018-04-20T04:29:07.673Z,67.03
2018-04-20T04:30:11.867Z,67.75
2018-04-20T04:31:16.845Z,61.80
2018-04-20T04:32:21.067Z,66.60
2018-04-20T04:33:26.304Z,62.17
2018-04-20T04:34:31.299Z,68.18
2018-04-20T04:35:35.516Z,61.17
2018-04-20T04:36:39.747Z,62.62
2018-04-20T04:37:43.931Z,60.80
2018-04-20T04:38:48.738Z,59.13
2018-04-20T04:39:52.798Z,60.28
2018-04-20T04:40:56.898Z,57.20
2018-04-20T04:42:00.946Z,55.83
2018-04-20T04:43:04.975Z,54.55
2018-04-20T04:44:08.991Z,53.95
2018-04-20T04:45:13.830Z,53.25
2018-04-20T04:46:17.874Z,55.20
2018-04-20T04:47:22.674Z,53.97
2018-04-20T04:48:26.751Z,52.65
2018-04-20T04:49:30.887Z,53.83
2018-04-20T04:50:36.365Z,51.88
2018-04-20T04:51:40.403Z,53.58
2018-04-20T04:52:48.703Z,52.08
2018-04-20T04:53:57.334Z,48.67
2018-04-20T04:55:01.395Z,50.65
2018-04-20T04:56:05.544Z,48.95
2018-04-20T04:57:09.577Z,43.92
2018-04-20T04:58:13.866Z,48.97
2018-04-20T04:59:18.666Z,47.35
2018-04-20T05:00:22.704Z,48.03
2018-04-20T05:01:26.738Z,47.10
2018-04-20T05:02:30.795Z,46.15
2018-04-20T05:03:34.858Z,44.83
2018-04-20T05:04:38.909Z,47.72
2018-04-20T05:05:43.794Z,43.75
2018-04-20T05:06:47.851Z,42.00
2018-04-20T05:07:52.204Z,41.90
2018-04-20T05:08:56.247Z,42.75
2018-04-20T05:10:00.279Z,42.10
2018-04-20T05:11:04.314Z,40.78
2018-04-20T05:12:09.136Z,40.55
2018-04-20T05:13:14.008Z,38.47
2018-04-20T05:14:18.320Z,38.17
2018-04-20T05:15:22.570Z,37.25
2018-04-20T05:16:27.590Z,38.30
2018-04-20T05:17:32.559Z,37.55
2018-04-20T05:18:36.773Z,36.20
2018-04-20T05:19:41.006Z,36.38
2018-04-20T05:20:45.541Z,36.47
2018-04-20T05:21:50.363Z,32.90
2018-04-20T05:22:55.178Z,34.55
2018-04-20T05:23:59.647Z,33.80
2018-04-20T05:25:04.130Z,33.42
2018-04-20T05:26:08.194Z,34.63
2018-04-20T05:27:13.334Z,35.90
2018-04-20T05:28:18.159Z,32.92
2018-04-20T05:29:23.578Z,33.05
2018-04-20T05:30:28.543Z,31.90
2018-04-20T05:31:33.127Z,30.77
2018-04-20T05:32:37.778Z,31.73
2018-04-20T05:33:42.797Z,31.48
2018-04-20T05:34:47.414Z,29.60
2018-04-20T05:35:52.454Z,27.55
2018-04-20T05:36:57.479Z,29.17
2018-04-20T05:38:02.582Z,29.17
2018-04-20T05:39:07.569Z,27.80
2018-04-20T05:40:12.506Z,26.87
2018-04-20T05:41:17.565Z,27.33
2018-04-20T05:42:24.170Z,27.62
2018-04-20T05:43:29.361Z,27.80
2018-04-20T05:44:34.416Z,27.27
2018-04-20T05:45:38.548Z,28.62
2018-04-20T05:46:43.463Z,26.08
2018-04-20T05:47:47.713Z,26.75
2018-04-20T05:48:52.672Z,26.08
2018-04-20T05:49:57.781Z,24.95
2018-04-20T05:51:02.113Z,27.13
2018-04-20T05:52:07.149Z,27.80
2018-04-20T05:53:12.349Z,27.13
2018-04-20T05:54:16.935Z,25.70
2018-04-20T05:55:21.215Z,25.20
2018-04-20T05:56:25.569Z,24.37
2018-04-20T05:57:29.867Z,23.02
2018-04-20T05:58:34.246Z,23.98
2018-04-20T05:59:38.534Z,24.02
2018-04-20T06:00:43.122Z,25.10
2018-04-20T06:01:48.013Z,23.58
2018-04-20T06:02:52.159Z,22.05
2018-04-20T06:03:57.029Z,21.80
2018-04-20T06:05:02.032Z,22.45
2018-04-20T06:06:06.135Z,22.83
2018-04-20T06:07:10.527Z,22.37
2018-04-20T06:08:15.456Z,22.33
2018-04-20T06:09:19.614Z,23.27
2018-04-20T06:10:24.524Z,21.30
2018-04-20T06:11:28.674Z,21.45
2018-04-20T06:12:33.104Z,22.70
2018-04-20T06:13:38.018Z,21.15
2018-04-20T06:14:42.167Z,20.62
2018-04-20T06:15:46.294Z,21.35
2018-04-20T06:16:51.195Z,20.50
2018-04-20T06:17:55.484Z,18.80
2018-04-20T06:19:00.063Z,19.73
2018-04-20T06:20:04.373Z,20.37
2018-04-20T06:21:08.652Z,19.35
2018-04-20T06:22:13.701Z,20.42
2018-04-20T06:23:18.160Z,19.42
2018-04-20T06:24:23.230Z,19.95
2018-04-20T06:25:27.506Z,19.25
2018-04-20T06:26:31.632Z,18.83
2018-04-20T06:27:36.631Z,18.52
2018-04-20T06:28:40.983Z,18.15
2018-04-20T06:29:45.243Z,17.45
2018-04-20T06:30:49.730Z,17.83
2018-04-20T06:31:53.928Z,18.50
2018-04-20T06:32:58.166Z,17.33
2018-04-20T06:34:02.388Z,16.25
2018-04-20T06:35:07.384Z,17.33
2018-04-20T06:36:11.553Z,16.85
2018-04-20T06:37:15.611Z,16.35
2018-04-20T06:38:20.435Z,17.05
2018-04-20T06:39:25.262Z,17.10
2018-04-20T06:40:29.362Z,16.77
2018-04-20T06:41:34.166Z,16.37
2018-04-20T06:42:38.983Z,15.52
2018-04-20T06:43:43.073Z,15.85
2018-04-20T06:44:47.115Z,15.93
2018-04-20T06:45:51.326Z,14.52
2018-04-20T06:46:55.518Z,15.70
2018-04-20T06:47:59.746Z,15.10
2018-04-20T06:49:04.035Z,15.48
2018-04-20T06:50:09.019Z,13.98
2018-04-20T06:51:13.254Z,14.73
2018-04-20T06:52:17.510Z,15.70
2018-04-20T06:53:21.747Z,13.38
2018-04-20T06:54:26.188Z,14.30
2018-04-20T06:55:30.575Z,15.00
2018-04-20T06:56:35.673Z,14.25
2018-04-20T06:57:39.910Z,14.25
2018-04-20T06:58:44.970Z,13.90
2018-04-20T06:59:49.209Z,14.48
2018-04-20T07:00:53.522Z,13.13
2018-04-20T07:01:57.756Z,13.05
2018-04-20T07:03:02.740Z,14.25
2018-04-20T07:04:06.953Z,13.25
2018-04-20T07:05:11.274Z,13.55
2018-04-20T07:06:15.517Z,13.20
2018-04-20T07:07:19.771Z,13.48
2018-04-20T07:08:24.077Z,13.35
2018-04-20T07:09:28.307Z,13.55
2018-04-20T07:10:33.336Z,12.85
2018-04-20T07:11:38.297Z,12.23
2018-04-20T07:12:42.542Z,12.98
2018-04-20T07:13:46.818Z,13.10
2018-04-20T07:14:51.059Z,12.80
2018-04-20T07:15:56.711Z,11.75
2018-04-20T07:17:00.971Z,11.12
2018-04-20T07:18:05.193Z,11.82
2018-04-20T07:19:09.410Z,12.25
2018-04-20T07:20:13.669Z,12.35
2018-04-20T07:21:18.147Z,11.02
2018-04-20T07:22:23.135Z,10.95
2018-04-20T07:23:27.268Z,11.95
2018-04-20T07:24:31.344Z,10.88
2018-04-20T07:25:35.487Z,12.05
2018-04-20T07:26:40.365Z,11.20
2018-04-20T07:27:44.395Z,11.02
2018-04-20T07:28:48.524Z,11.80
2018-04-20T07:29:53.206Z,9.85
2018-04-20T07:30:57.255Z,11.63
2018-04-20T07:32:01.382Z,11.80
2018-04-20T07:33:05.663Z,11.02
2018-04-20T07:34:09.900Z,12.00
2018-04-20T07:35:14.136Z,10.38
2018-04-20T07:36:18.372Z,10.68
2018-04-20T07:37:22.622Z,10.93
2018-04-20T07:38:26.883Z,10.93
2018-04-20T07:40:33.447Z,10.90
2018-04-20T07:41:37.569Z,10.73
2018-04-20T07:42:41.854Z,11.30
2018-04-20T07:43:52.270Z,9.18
2018-04-20T07:44:56.511Z,9.50
2018-04-20T07:46:00.841Z,9.40
2018-04-20T07:47:05.078Z,10.98
2018-04-20T07:48:09.332Z,9.45
2018-04-20T07:49:13.591Z,10.05
2018-04-20T07:50:17.807Z,10.45
2018-04-20T07:51:22.003Z,9.55
2018-04-20T07:52:26.347Z,9.25
2018-04-20T07:53:30.600Z,9.38
2018-04-20T07:54:34.819Z,8.77
2018-04-20T07:55:39.073Z,9.80
2018-04-20T07:56:43.616Z,9.32
2018-04-20T07:57:47.845Z,9.35
2018-04-20T07:58:52.050Z,10.20
2018-04-20T07:59:56.382Z,8.85
2018-04-20T08:01:01.466Z,9.73
2018-04-20T08:02:05.692Z,10.43
2018-04-20T08:03:09.932Z,9.60
2018-04-20T08:04:14.159Z,8.50
2018-04-20T08:05:18.363Z,10.00
2018-04-20T08:06:22.632Z,9.07
2018-04-20T08:07:27.371Z,10.10
2018-04-20T08:08:31.615Z,7.87
2018-04-20T08:09:35.676Z,9.43
2018-04-20T08:10:39.745Z,9.27
2018-04-20T08:11:43.840Z,9.02
2018-04-20T08:12:47.946Z,10.23
2018-04-20T08:13:52.164Z,8.68
2018-04-20T08:14:56.379Z,9.30
2018-04-20T08:16:01.312Z,7.97
2018-04-20T08:17:05.397Z,8.88
2018-04-20T08:18:10.222Z,8.38
2018-04-20T08:19:15.070Z,9.10
2018-04-20T08:20:19.122Z,8.75
2018-04-20T08:21:23.189Z,8.40
2018-04-20T08:22:27.266Z,7.60
2018-04-20T08:23:31.340Z,8.93
2018-04-20T08:24:36.296Z,9.00
2018-04-20T08:25:40.387Z,9.00
2018-04-20T08:26:44.543Z,7.62
2018-04-20T08:27:48.595Z,7.43
2018-04-20T08:28:52.668Z,9.10
2018-04-20T08:29:57.509Z,8.02
2018-04-20T08:31:02.427Z,7.50
2018-04-20T08:32:07.316Z,8.88
2018-04-20T08:33:11.465Z,8.05
2018-04-20T08:34:15.712Z,6.97
2018-04-20T08:35:19.731Z,8.25
2018-04-20T08:36:23.895Z,7.93
2018-04-20T08:37:28.862Z,7.97
2018-04-20T08:38:33.091Z,7.15
2018-04-20T08:39:37.344Z,8.50
2018-04-20T08:40:41.547Z,8.15
2018-04-20T08:41:45.798Z,7.65
2018-04-20T08:42:53.136Z,7.50
2018-04-20T08:44:03.889Z,7.35
2018-04-20T08:45:10.133Z,8.05
2018-04-20T08:46:15.456Z,8.73
2018-04-20T08:47:20.954Z,7.50
2018-04-20T08:48:25.962Z,7.68
2018-04-20T08:49:30.210Z,8.63
2018-04-20T08:50:34.430Z,7.68
2018-04-20T08:51:38.670Z,7.30
2018-04-20T08:52:43.125Z,8.77
2018-04-20T08:53:47.807Z,7.32
2018-04-20T08:54:52.063Z,7.82
2018-04-20T08:55:56.334Z,7.90
2018-04-20T08:57:01.387Z,7.72
2018-04-20T08:58:05.595Z,6.85
2018-04-20T08:59:11.372Z,7.97
2018-04-20T09:00:15.603Z,8.65
2018-04-20T09:01:19.923Z,7.15
2018-04-20T09:02:24.253Z,7.28
2018-04-20T09:03:28.565Z,7.22
2018-04-20T09:04:33.559Z,6.70
2018-04-20T09:05:38.558Z,7.32
2018-04-20T09:06:43.663Z,8.30
2018-04-20T09:07:47.722Z,7.72
2018-04-20T09:08:51.838Z,7.57
2018-04-20T09:09:55.907Z,7.72
2018-04-20T09:11:00.787Z,6.60
2018-04-20T09:12:04.890Z,7.80
2018-04-20T09:13:09.024Z,6.70
2018-04-20T09:14:13.090Z,7.50
2018-04-20T09:15:17.198Z,7.22
2018-04-20T09:16:21.348Z,7.25
2018-04-20T09:17:26.629Z,7.60
2018-04-20T09:18:30.752Z,7.35
2018-04-20T09:19:34.966Z,7.70
2018-04-20T09:20:39.085Z,7.50
2018-04-20T09:21:43.429Z,7.35
2018-04-20T09:22:47.490Z,6.80
2018-04-20T09:23:52.392Z,8.00
2018-04-20T09:24:56.605Z,6.03
2018-04-20T09:26:00.761Z,7.57
2018-04-20T09:27:04.995Z,8.30
2018-04-20T09:28:09.187Z,7.70
2018-04-20T09:29:13.322Z,7.35
2018-04-20T09:30:17.622Z,7.87
2018-04-20T09:31:21.701Z,8.13
2018-04-20T09:32:25.863Z,7.20
2018-04-20T09:33:30.740Z,7.50
2018-04-20T09:34:34.904Z,7.10
2018-04-20T09:35:38.978Z,8.05
2018-04-20T09:36:43.816Z,7.37
2018-04-20T09:37:47.930Z,6.30
2018-04-20T09:38:52.681Z,7.60
2018-04-20T09:39:57.530Z,7.22
2018-04-20T09:41:02.382Z,7.53
2018-04-20T09:42:06.671Z,7.07
2018-04-20T09:43:11.025Z,8.32
2018-04-20T09:44:15.271Z,7.05
2018-04-20T09:45:19.515Z,7.00
2018-04-20T09:46:23.763Z,7.25
2018-04-20T09:47:28.075Z,7.65
2018-04-20T09:48:32.354Z,7.05
2018-04-20T09:49:37.359Z,6.35
2018-04-20T09:50:42.427Z,7.72
2018-04-20T09:51:47.869Z,9.20
2018-04-20T09:52:52.289Z,7.22
2018-04-20T09:53:57.332Z,7.50
2018-04-20T09:55:01.567Z,8.15
2018-04-20T09:56:05.940Z,7.65
2018-04-20T09:57:11.807Z,6.70
2018-04-20T09:58:16.585Z,8.23
2018-04-20T09:59:36.131Z,7.30
2018-04-20T10:00:41.854Z,7.90
2018-04-20T10:01:46.212Z,7.32
2018-04-20T10:02:51.467Z,7.57
2018-04-20T10:03:57.056Z,7.93
2018-04-20T10:05:01.596Z,7.43
2018-04-20T10:06:06.418Z,7.80
2018-04-20T10:07:11.227Z,6.93
2018-04-20T10:08:16.068Z,7.78
2018-04-20T10:09:20.115Z,7.15
2018-04-20T10:10:24.166Z,7.60
2018-04-20T10:11:28.220Z,6.65
2018-04-20T10:12:32.262Z,6.68
2018-04-20T10:13:36.622Z,7.60
2018-04-20T10:14:40.846Z,7.12
2018-04-20T10:15:45.012Z,7.00
2018-04-20T10:16:49.049Z,7.10
2018-04-20T10:17:54.172Z,7.10
2018-04-20T10:18:58.311Z,6.80
2018-04-20T10:20:02.622Z,6.75
2018-04-20T10:21:06.714Z,7.80
2018-04-20T10:22:11.565Z,6.70
2018-04-20T10:23:15.614Z,7.72
2018-04-20T10:24:20.479Z,7.20
2018-04-20T10:25:24.565Z,7.35
2018-04-20T10:26:29.313Z,7.47
2018-04-20T10:27:34.450Z,6.68
2018-04-20T10:28:38.955Z,6.60
2018-04-20T10:29:43.763Z,7.28
2018-04-20T10:30:47.782Z,7.78
2018-04-20T10:31:55.214Z,7.07
2018-04-20T10:33:00.045Z,6.72
2018-04-20T10:34:04.122Z,7.87
2018-04-20T10:35:08.996Z,7.18
2018-04-20T10:36:13.075Z,7.45
2018-04-20T10:37:17.086Z,7.65
2018-04-20T10:38:21.391Z,7.37
2018-04-20T10:39:25.486Z,7.80
2018-04-20T10:40:29.551Z,7.35
2018-04-20T10:41:33.650Z,8.48
2018-04-20T10:42:37.751Z,6.97
2018-04-20T10:43:41.807Z,8.05
2018-04-20T10:44:46.069Z,7.97
2018-04-20T10:45:51.606Z,7.82
2018-04-20T10:46:56.570Z,8.02
2018-04-20T10:48:00.835Z,7.60
2018-04-20T10:49:06.094Z,7.25
2018-04-20T10:50:10.343Z,7.85
2018-04-20T10:51:14.591Z,7.47
2018-04-20T10:52:18.810Z,7.72
2018-04-20T10:53:22.850Z,7.75
2018-04-20T10:54:26.882Z,8.88
2018-04-20T10:55:31.778Z,7.72
2018-04-20T10:56:35.834Z,9.05
2018-04-20T10:57:39.878Z,8.68
2018-04-20T10:58:43.957Z,7.87
2018-04-20T10:59:48.006Z,8.63
2018-04-20T11:00:52.866Z,8.75
2018-04-20T11:01:56.890Z,8.88
2018-04-20T11:03:01.208Z,8.85
2018-04-20T11:04:05.427Z,9.10
2018-04-20T11:05:09.644Z,8.38
2018-04-20T11:06:14.651Z,8.32
2018-04-20T11:07:19.023Z,8.15
2018-04-20T11:08:23.208Z,7.43
2018-04-20T11:09:27.414Z,8.15
2018-04-20T11:10:31.668Z,7.87
2018-04-20T11:11:35.737Z,7.97
2018-04-20T11:12:40.139Z,7.72
2018-04-20T11:13:44.192Z,7.55
2018-04-20T11:14:49.008Z,7.35
2018-04-20T11:15:53.040Z,8.07
2018-04-20T11:16:57.100Z,8.07
2018-04-20T11:18:01.299Z,7.25
2018-04-20T11:19:06.472Z,7.20
2018-04-20T11:20:10.702Z,7.35
2018-04-20T11:21:14.799Z,8.15
2018-04-20T11:22:19.183Z,8.77
2018-04-20T11:23:23.975Z,8.07
2018-04-20T11:24:29.058Z,7.75
2018-04-20T11:25:33.287Z,8.68
2018-04-20T11:26:37.485Z,7.93
2018-04-20T11:27:41.768Z,7.43
2018-04-20T11:28:45.963Z,7.75
2018-04-20T11:29:50.329Z,8.82
2018-04-20T11:30:55.139Z,8.40
2018-04-20T11:31:59.198Z,9.20
2018-04-20T11:33:03.350Z,8.07
2018-04-20T11:34:07.403Z,7.60
2018-04-20T11:35:11.457Z,7.82
2018-04-20T11:36:15.495Z,6.93
2018-04-20T11:37:19.680Z,8.27
2018-04-20T11:38:24.510Z,7.55
2018-04-20T11:39:29.338Z,9.27
2018-04-20T11:40:33.383Z,7.65
2018-04-20T11:41:37.458Z,8.55
2018-04-20T11:42:41.549Z,8.93
2018-04-20T11:43:45.601Z,7.65
2018-04-20T11:44:49.646Z,7.37
2018-04-20T11:45:54.178Z,7.40
2018-04-20T11:46:58.386Z,7.30
2018-04-20T11:48:03.211Z,7.53
2018-04-20T11:49:07.262Z,7.30
2018-04-20T11:50:12.427Z,6.85
2018-04-20T11:51:16.479Z,7.15
2018-04-20T11:52:20.581Z,7.95
2018-04-20T11:53:24.667Z,7.47
2018-04-20T11:54:28.698Z,6.95
2018-04-20T11:55:33.502Z,7.30
2018-04-20T11:56:38.315Z,7.87
2018-04-20T11:57:42.350Z,6.68
2018-04-20T11:58:47.335Z,7.05
2018-04-20T11:59:51.527Z,6.40
2018-04-20T12:00:55.739Z,6.93
2018-04-20T12:02:00.535Z,6.85
2018-04-20T12:03:04.632Z,6.80
2018-04-20T12:04:08.676Z,6.97
2018-04-20T12:05:12.796Z,8.85
2018-04-20T12:06:17.618Z,7.05
2018-04-20T12:07:22.439Z,6.37
2018-04-20T12:08:27.267Z,7.28
2018-04-20T12:09:31.438Z,6.70
2018-04-20T12:10:35.456Z,7.00
2018-04-20T12:11:40.300Z,7.37
2018-04-20T12:12:44.339Z,6.93
2018-04-20T12:13:49.853Z,7.62
2018-04-20T12:14:54.288Z,7.00
2018-04-20T12:15:58.331Z,6.85
2018-04-20T12:17:03.174Z,7.25
2018-04-20T12:18:07.274Z,6.78
2018-04-20T12:19:11.320Z,6.47
2018-04-20T12:20:15.667Z,6.35
2018-04-20T12:21:20.076Z,7.35
2018-04-20T12:22:24.891Z,7.35
2018-04-20T12:23:29.786Z,7.20
2018-04-20T12:24:33.874Z,7.90
2018-04-20T12:25:37.974Z,6.47
2018-04-20T12:26:42.918Z,7.18
2018-04-20T12:27:48.135Z,6.97
2018-04-20T12:28:52.248Z,6.40
2018-04-20T12:29:57.184Z,5.57
2018-04-20T12:31:02.027Z,6.35
2018-04-20T12:32:06.087Z,7.75
2018-04-20T12:33:10.088Z,6.82
2018-04-20T12:34:14.130Z,7.00
2018-04-20T12:35:18.247Z,6.57
2018-04-20T12:36:22.269Z,7.87
2018-04-20T12:37:26.358Z,6.07
2018-04-20T12:38:30.711Z,6.72
2018-04-20T12:39:35.130Z,7.05
2018-04-20T12:40:40.146Z,6.30
2018-04-20T12:41:44.246Z,6.45
2018-04-20T12:42:49.123Z,7.07
2018-04-20T12:43:53.355Z,7.60
2018-04-20T12:45:00.858Z,7.32
2018-04-20T12:46:05.185Z,6.05
2018-04-20T12:47:10.186Z,7.07
2018-04-20T12:48:14.419Z,6.37
2018-04-20T12:49:18.636Z,6.25
2018-04-20T12:50:22.834Z,6.25
2018-04-20T12:51:27.059Z,6.65
2018-04-20T12:52:32.055Z,6.07
2018-04-20T12:53:36.346Z,6.78
2018-04-20T12:54:41.384Z,6.45
2018-04-20T12:55:45.606Z,6.12
2018-04-20T12:56:51.175Z,8.30
2018-04-20T12:57:55.408Z,5.95
2018-04-20T12:59:00.114Z,5.45
2018-04-20T13:00:04.325Z,5.70
2018-04-20T13:01:08.674Z,5.93
2018-04-20T13:02:13.573Z,5.68
2018-04-20T13:03:18.568Z,6.82
2018-04-20T13:04:22.822Z,6.70
2018-04-20T13:05:27.062Z,6.00
2018-04-20T13:06:31.288Z,6.85
2018-04-20T13:07:35.915Z,6.60
2018-04-20T13:08:41.103Z,6.43
2018-04-20T13:09:45.290Z,6.05
2018-04-20T13:10:50.372Z,7.03
2018-04-20T13:11:55.386Z,5.12
2018-04-20T13:12:59.621Z,6.95
2018-04-20T13:14:04.616Z,6.10
2018-04-20T13:15:08.829Z,6.10
2018-04-20T13:16:13.075Z,6.43
2018-04-20T13:17:17.347Z,6.50
2018-04-20T13:18:22.367Z,6.30
2018-04-20T13:19:26.634Z,6.55
2018-04-20T13:20:30.814Z,6.05
2018-04-20T13:21:34.858Z,6.07
2018-04-20T13:22:39.365Z,5.72
2018-04-20T13:23:43.492Z,5.35
2018-04-20T13:24:49.542Z,6.87
2018-04-20T13:25:53.589Z,6.60
2018-04-20T13:26:57.787Z,6.35
2018-04-20T13:28:01.863Z,6.15
2018-04-20T13:29:06.144Z,6.32
2018-04-20T13:30:10.424Z,6.65
2018-04-20T13:31:14.646Z,6.55
2018-04-20T13:32:18.848Z,7.32
2018-04-20T13:33:23.123Z,6.90
2018-04-20T13:34:27.400Z,6.50
2018-04-20T13:35:31.554Z,5.62
2018-04-20T13:36:36.356Z,6.18
2018-04-20T13:37:40.617Z,6.45
2018-04-20T13:38:45.518Z,7.15
2018-04-20T13:39:49.684Z,6.95
2018-04-20T13:40:58.861Z,7.18
2018-04-20T13:42:02.991Z,6.80
2018-04-20T13:43:07.355Z,7.32
2018-04-20T13:44:11.467Z,7.00
2018-04-20T13:45:16.492Z,6.15
2018-04-20T13:46:20.585Z,5.75
2018-04-20T13:47:24.808Z,6.93
2018-04-20T13:48:29.704Z,6.18
2018-04-20T13:49:33.928Z,6.20
2018-04-20T13:50:38.194Z,6.20
2018-04-20T13:51:42.522Z,6.70
2018-04-20T13:52:46.894Z,7.40
2018-04-20T13:53:53.251Z,5.28
2018-04-20T13:54:57.609Z,6.12
2018-04-20T13:56:01.709Z,6.78
2018-04-20T13:57:05.768Z,6.20
2018-04-20T13:58:09.851Z,6.07
2018-04-20T13:59:13.904Z,5.57
2018-04-20T14:00:18.246Z,6.37
2018-04-20T14:01:23.061Z,6.37
2018-04-20T14:02:27.911Z,5.57
2018-04-20T14:03:32.378Z,5.78
2018-04-20T14:04:36.544Z,5.00